sensor_id;sensor_type;location;lat;lon;timestamp;pressure;altitude;pressure_sealevel;temperature;humidity
15634;BME280;14654;48.898;8.308;2022-11-04T00:00:17;99312.38;;;10.42;100.00
15634;BME280;14654;48.898;8.308;2022-11-04T00:02:42;99320.19;;;10.40;100.00
15634;BME280;14654;48.898;8.308;2022-11-04T00:05:07;99319.34;;;10.36;100.00
15634;BME280;14654;48.898;8.308;2022-11-04T00:07:33;99321.13;;;10.34;100.00
15634;BME280;14654;48.898;8.308;2022-11-04T00:10:17;99316.91;;;10.30;100.00
15634;BME280;14654;48.898;8.308;2022-11-04T00:13:02;99319.56;;;10.27;100.00
15634;BME280;14654;48.898;8.308;2022-11-04T00:15:27;99327.41;;;10.24;100.00
15634;BME280;14654;48.898;8.308;2022-11-04T00:18:13;99318.88;;;10.20;100.00
15634;BME280;14654;48.898;8.308;2022-11-04T00:20:38;99327.56;;;10.18;100.00
15634;BME280;14654;48.898;8.308;2022-11-04T00:23:22;99344.06;;;10.12;100.00
15634;BME280;14654;48.898;8.308;2022-11-04T00:26:07;99357.03;;;10.09;100.00
15634;BME280;14654;48.898;8.308;2022-11-04T00:28:52;99367.38;;;10.09;100.00
15634;BME280;14654;48.898;8.308;2022-11-04T00:31:18;99379.44;;;10.10;100.00
15634;BME280;14654;48.898;8.308;2022-11-04T00:34:02;99367.31;;;10.12;100.00
15634;BME280;14654;48.898;8.308;2022-11-04T00:36:27;99367.31;;;10.12;100.00
15634;BME280;14654;48.898;8.308;2022-11-04T00:38:52;99363.03;;;10.11;100.00
15634;BME280;14654;48.898;8.308;2022-11-04T00:41:18;99364.75;;;10.11;100.00
15634;BME280;14654;48.898;8.308;2022-11-04T00:44:03;99385.44;;;10.11;100.00
15634;BME280;14654;48.898;8.308;2022-11-04T00:46:31;99380.31;;;10.07;100.00
15634;BME280;14654;48.898;8.308;2022-11-04T00:48:57;99388.13;;;10.06;100.00
15634;BME280;14654;48.898;8.308;2022-11-04T00:51:22;99395.94;;;10.03;100.00
15634;BME280;14654;48.898;8.308;2022-11-04T00:53:48;99397.69;;;10.01;100.00
15634;BME280;14654;48.898;8.308;2022-11-04T00:56:14;99400.38;;;9.96;100.00
15634;BME280;14654;48.898;8.308;2022-11-04T00:58:39;99391.84;;;9.93;100.00
15634;BME280;14654;48.898;8.308;2022-11-04T01:01:09;99387.63;;;9.90;100.00
15634;BME280;14654;48.898;8.308;2022-11-04T01:03:35;99392.78;;;9.88;100.00
15634;BME280;14654;48.898;8.308;2022-11-04T01:06:01;99391.16;;;9.84;100.00
15634;BME280;14654;48.898;8.308;2022-11-04T01:08:26;99395.53;;;9.82;100.00
15634;BME280;14654;48.898;8.308;2022-11-04T01:10:51;99392.91;;;9.84;100.00
15634;BME280;14654;48.898;8.308;2022-11-04T01:13:17;99392.03;;;9.83;100.00
15634;BME280;14654;48.898;8.308;2022-11-04T01:15:42;99404.06;;;9.84;100.00
15634;BME280;14654;48.898;8.308;2022-11-04T01:18:07;99388.56;;;9.84;100.00
15634;BME280;14654;48.898;8.308;2022-11-04T01:20:33;99386.84;;;9.85;100.00
15634;BME280;14654;48.898;8.308;2022-11-04T01:22:58;99378.22;;;9.86;100.00
15634;BME280;14654;48.898;8.308;2022-11-04T01:25:24;99386.84;;;9.83;100.00
15634;BME280;14654;48.898;8.308;2022-11-04T01:27:50;99378.28;;;9.83;100.00
15634;BME280;14654;48.898;8.308;2022-11-04T01:30:15;99378.31;;;9.80;100.00
15634;BME280;14654;48.898;8.308;2022-11-04T01:32:40;99386.06;;;9.80;100.00
15634;BME280;14654;48.898;8.308;2022-11-04T01:35:06;99392.13;;;9.80;100.00
15634;BME280;14654;48.898;8.308;2022-11-04T01:37:32;99385.25;;;9.79;100.00
15634;BME280;14654;48.898;8.308;2022-11-04T01:39:57;99384.41;;;9.77;100.00
15634;BME280;14654;48.898;8.308;2022-11-04T01:42:22;99393.09;;;9.74;100.00
15634;BME280;14654;48.898;8.308;2022-11-04T01:44:51;99384.50;;;9.72;100.00
15634;BME280;14654;48.898;8.308;2022-11-04T01:47:35;99395.69;;;9.73;100.00
15634;BME280;14654;48.898;8.308;2022-11-04T01:50:11;99394.88;;;9.71;100.00
15634;BME280;14654;48.898;8.308;2022-11-04T01:55:10;99393.25;;;9.67;100.00
15634;BME280;14654;48.898;8.308;2022-11-04T01:57:40;99397.59;;;9.65;100.00
15634;BME280;14654;48.898;8.308;2022-11-04T02:00:07;99398.47;;;9.62;100.00
15634;BME280;14654;48.898;8.308;2022-11-04T02:02:36;99401.09;;;9.60;100.00
15634;BME280;14654;48.898;8.308;2022-11-04T02:05:04;99395.97;;;9.59;100.00
15634;BME280;14654;48.898;8.308;2022-11-04T02:07:30;99392.56;;;9.55;100.00
15634;BME280;14654;48.898;8.308;2022-11-04T02:09:56;99390.88;;;9.54;100.00
15634;BME280;14654;48.898;8.308;2022-11-04T02:12:22;99393.50;;;9.53;100.00
15634;BME280;14654;48.898;8.308;2022-11-04T02:15:06;99391.84;;;9.49;100.00
15634;BME280;14654;48.898;8.308;2022-11-04T02:33:23;99387.78;;;9.35;100.00
15634;BME280;14654;48.898;8.308;2022-11-04T02:38:30;99379.25;;;9.32;100.00
15634;BME280;14654;48.898;8.308;2022-11-04T02:48:46;99387.97;;;9.26;100.00
15634;BME280;14654;48.898;8.308;2022-11-04T02:51:24;99393.13;;;9.26;100.00
15634;BME280;14654;48.898;8.308;2022-11-04T02:53:59;99394.84;;;9.25;100.00
15634;BME280;14654;48.898;8.308;2022-11-04T02:56:27;99390.59;;;9.23;100.00
15634;BME280;14654;48.898;8.308;2022-11-04T02:58:58;99386.31;;;9.22;100.00
15634;BME280;14654;48.898;8.308;2022-11-04T03:01:32;99388.94;;;9.20;100.00
15634;BME280;14654;48.898;8.308;2022-11-04T03:04:12;99400.13;;;9.19;100.00
15634;BME280;14654;48.898;8.308;2022-11-04T03:06:41;99398.41;;;9.20;100.00
15634;BME280;14654;48.898;8.308;2022-11-04T03:09:10;99396.72;;;9.17;100.00
15634;BME280;14654;48.898;8.308;2022-11-04T03:11:40;99385.53;;;9.17;100.00
15634;BME280;14654;48.898;8.308;2022-11-04T03:14:28;99364.03;;;9.16;100.00
15634;BME280;14654;48.898;8.308;2022-11-04T03:16:59;99372.72;;;9.13;100.00
15634;BME280;14654;48.898;8.308;2022-11-04T03:22:06;99375.28;;;9.12;100.00
15634;BME280;14654;48.898;8.308;2022-11-04T03:24:34;99383.91;;;9.12;100.00
15634;BME280;14654;48.898;8.308;2022-11-04T03:27:00;99378.75;;;9.11;100.00
15634;BME280;14654;48.898;8.308;2022-11-04T03:29:31;99377.03;;;9.11;100.00
15634;BME280;14654;48.898;8.308;2022-11-04T03:34:25;99391.78;;;9.05;100.00
15634;BME280;14654;48.898;8.308;2022-11-04T03:36:51;99386.66;;;9.02;100.00
15634;BME280;14654;48.898;8.308;2022-11-04T03:39:16;99387.59;;;8.99;100.00
15634;BME280;14654;48.898;8.308;2022-11-04T03:42:03;99385.88;;;8.98;100.00
15634;BME280;14654;48.898;8.308;2022-11-04T03:44:46;99404.81;;;8.97;100.00
15634;BME280;14654;48.898;8.308;2022-11-04T03:47:12;99381.59;;;8.95;100.00
15634;BME280;14654;48.898;8.308;2022-11-04T03:49:38;99386.75;;;8.95;100.00
15634;BME280;14654;48.898;8.308;2022-11-04T03:52:03;99392.00;;;8.92;100.00
15634;BME280;14654;48.898;8.308;2022-11-04T03:54:29;99400.59;;;8.91;100.00
15634;BME280;14654;48.898;8.308;2022-11-04T04:07:50;99374.97;;;8.80;100.00
15634;BME280;14654;48.898;8.308;2022-11-04T04:10:29;99371.53;;;8.80;100.00
15634;BME280;14654;48.898;8.308;2022-11-04T04:18:32;99367.31;;;8.76;100.00
15634;BME280;14654;48.898;8.308;2022-11-04T04:21:01;99361.34;;;8.74;100.00
15634;BME280;14654;48.898;8.308;2022-11-04T04:23:31;99361.34;;;8.72;100.00
15634;BME280;14654;48.898;8.308;2022-11-04T04:26:18;99371.66;;;8.72;100.00
15634;BME280;14654;48.898;8.308;2022-11-04T04:29:04;99357.94;;;8.70;100.00
15634;BME280;14654;48.898;8.308;2022-11-04T04:31:32;99352.78;;;8.70;100.00
15634;BME280;14654;48.898;8.308;2022-11-04T04:34:16;99359.72;;;8.68;100.00
15634;BME280;14654;48.898;8.308;2022-11-04T04:37:29;99371.75;;;8.67;100.00
15634;BME280;14654;48.898;8.308;2022-11-04T04:39:57;99366.63;;;8.64;100.00
15634;BME280;14654;48.898;8.308;2022-11-04T04:42:42;99370.16;;;8.60;100.00
15634;BME280;14654;48.898;8.308;2022-11-04T04:45:29;99364.16;;;8.57;100.00
15634;BME280;14654;48.898;8.308;2022-11-04T04:47:56;99371.94;;;8.55;100.00
15634;BME280;14654;48.898;8.308;2022-11-04T04:50:25;99362.53;;;8.52;100.00
15634;BME280;14654;48.898;8.308;2022-11-04T04:52:52;99357.41;;;8.49;100.00
15634;BME280;14654;48.898;8.308;2022-11-04T04:55:19;99362.56;;;8.48;100.00
15634;BME280;14654;48.898;8.308;2022-11-04T04:57:44;99355.75;;;8.44;100.00
15634;BME280;14654;48.898;8.308;2022-11-04T05:00:16;99354.91;;;8.42;100.00
15634;BME280;14654;48.898;8.308;2022-11-04T05:02:42;99348.06;;;8.41;100.00
15634;BME280;14654;48.898;8.308;2022-11-04T05:05:08;99348.97;;;8.38;100.00
15634;BME280;14654;48.898;8.308;2022-11-04T05:07:33;99345.56;;;8.36;100.00
15634;BME280;14654;48.898;8.308;2022-11-04T05:09:59;99345.56;;;8.36;100.00
15634;BME280;14654;48.898;8.308;2022-11-04T05:12:24;99343.84;;;8.33;100.00
15634;BME280;14654;48.898;8.308;2022-11-04T05:14:50;99341.28;;;8.35;100.00
15634;BME280;14654;48.898;8.308;2022-11-04T05:17:15;99336.06;;;8.36;100.00
15634;BME280;14654;48.898;8.308;2022-11-04T05:19:40;99337.75;;;8.41;100.00
15634;BME280;14654;48.898;8.308;2022-11-04T05:22:06;99327.34;;;8.45;100.00
15634;BME280;14654;48.898;8.308;2022-11-04T05:24:31;99326.44;;;8.51;100.00
15634;BME280;14654;48.898;8.308;2022-11-04T05:26:56;99316.03;;;8.57;100.00
15634;BME280;14654;48.898;8.308;2022-11-04T05:29:22;99310.75;;;8.65;100.00
15634;BME280;14654;48.898;8.308;2022-11-04T05:31:47;99301.22;;;8.68;100.00
15634;BME280;14654;48.898;8.308;2022-11-04T05:34:13;99302.88;;;8.71;100.00
15634;BME280;14654;48.898;8.308;2022-11-04T05:36:39;99296.94;;;8.69;100.00
15634;BME280;14654;48.898;8.308;2022-11-04T05:39:05;99298.69;;;8.65;100.00
15634;BME280;14654;48.898;8.308;2022-11-04T05:41:32;99306.53;;;8.59;100.00
15634;BME280;14654;48.898;8.308;2022-11-04T05:43:59;99305.72;;;8.56;100.00
15634;BME280;14654;48.898;8.308;2022-11-04T05:46:26;99310.97;;;8.51;100.00
15634;BME280;14654;48.898;8.308;2022-11-04T05:48:51;99308.41;;;8.49;100.00
15634;BME280;14654;48.898;8.308;2022-11-04T05:51:22;99324.78;;;8.47;100.00
15634;BME280;14654;48.898;8.308;2022-11-04T05:53:48;99325.69;;;8.43;100.00
15634;BME280;14654;48.898;8.308;2022-11-04T05:56:14;99317.13;;;8.41;100.00
15634;BME280;14654;48.898;8.308;2022-11-04T05:58:40;99320.59;;;8.38;100.00
15634;BME280;14654;48.898;8.308;2022-11-04T06:03:37;99325.00;;;8.30;100.00
15634;BME280;14654;48.898;8.308;2022-11-04T06:06:02;99325.91;;;8.27;100.00
15634;BME280;14654;48.898;8.308;2022-11-04T06:08:27;99322.50;;;8.25;100.00
15634;BME280;14654;48.898;8.308;2022-11-04T06:10:54;99331.16;;;8.22;100.00
15634;BME280;14654;48.898;8.308;2022-11-04T06:13:19;99332.88;;;8.20;100.00
15634;BME280;14654;48.898;8.308;2022-11-04T06:15:45;99324.31;;;8.17;100.00
15634;BME280;14654;48.898;8.308;2022-11-04T06:18:10;99326.06;;;8.16;100.00
15634;BME280;14654;48.898;8.308;2022-11-04T06:20:35;99328.69;;;8.15;100.00
15634;BME280;14654;48.898;8.308;2022-11-04T06:23:01;99334.66;;;8.15;100.00
15634;BME280;14654;48.898;8.308;2022-11-04T06:25:26;99332.09;;;8.15;100.00
15634;BME280;14654;48.898;8.308;2022-11-04T06:27:52;99328.59;;;8.18;100.00
15634;BME280;14654;48.898;8.308;2022-11-04T06:30:17;99335.44;;;8.22;100.00
15634;BME280;14654;48.898;8.308;2022-11-04T06:32:43;99332.81;;;8.25;100.00
15634;BME280;14654;48.898;8.308;2022-11-04T06:35:08;99323.31;;;8.29;100.00
15634;BME280;14654;48.898;8.308;2022-11-04T06:37:33;99326.66;;;8.34;100.00
15634;BME280;14654;48.898;8.308;2022-11-04T06:39:59;99319.72;;;8.37;100.00
15634;BME280;14654;48.898;8.308;2022-11-04T06:42:24;99323.94;;;8.45;100.00
15634;BME280;14654;48.898;8.308;2022-11-04T06:44:51;99319.56;;;8.50;100.00
15634;BME280;14654;48.898;8.308;2022-11-04T06:47:16;99322.03;;;8.58;100.00
15634;BME280;14654;48.898;8.308;2022-11-04T06:49:42;99331.38;;;8.63;100.00
15634;BME280;14654;48.898;8.308;2022-11-04T06:52:08;99333.03;;;8.69;100.00
15634;BME280;14654;48.898;8.308;2022-11-04T06:54:33;99339.81;;;8.73;100.00
15634;BME280;14654;48.898;8.308;2022-11-04T06:56:58;99344.91;;;8.78;100.00
15634;BME280;14654;48.898;8.308;2022-11-04T06:59:24;99343.97;;;8.82;100.00
15634;BME280;14654;48.898;8.308;2022-11-04T07:01:49;99351.63;;;8.88;100.00
15634;BME280;14654;48.898;8.308;2022-11-04T07:04:16;99354.97;;;8.93;100.00
15634;BME280;14654;48.898;8.308;2022-11-04T07:06:42;99357.50;;;8.96;100.00
15634;BME280;14654;48.898;8.308;2022-11-04T07:09:09;99361.72;;;9.00;100.00
15634;BME280;14654;48.898;8.308;2022-11-04T07:11:35;99362.50;;;9.06;100.00
15634;BME280;14654;48.898;8.308;2022-11-04T07:14:00;99363.25;;;9.12;100.00
15634;BME280;14654;48.898;8.308;2022-11-04T07:16:26;99372.63;;;9.18;100.00
15634;BME280;14654;48.898;8.308;2022-11-04T07:18:55;99367.31;;;9.26;100.00
15634;BME280;14654;48.898;8.308;2022-11-04T07:21:20;99371.47;;;9.33;100.00
15634;BME280;14654;48.898;8.308;2022-11-04T07:23:46;99362.75;;;9.40;100.00
15634;BME280;14654;48.898;8.308;2022-11-04T07:26:11;99362.59;;;9.48;100.00
15634;BME280;14654;48.898;8.308;2022-11-04T07:28:37;99362.44;;;9.56;100.00
15634;BME280;14654;48.898;8.308;2022-11-04T07:31:04;99365.72;;;9.64;100.00
15634;BME280;14654;48.898;8.308;2022-11-04T07:33:30;99365.56;;;9.72;100.00
15634;BME280;14654;48.898;8.308;2022-11-04T07:35:57;99364.53;;;9.81;100.00
15634;BME280;14654;48.898;8.308;2022-11-04T07:38:23;99357.47;;;9.89;100.00
15634;BME280;14654;48.898;8.308;2022-11-04T07:40:48;99353.88;;;9.96;100.00
15634;BME280;14654;48.898;8.308;2022-11-04T07:43:15;99350.28;;;10.02;100.00
15634;BME280;14654;48.898;8.308;2022-11-04T07:45:40;99363.97;;;10.07;100.00
15634;BME280;14654;48.898;8.308;2022-11-04T07:48:06;99358.75;;;10.09;100.00
15634;BME280;14654;48.898;8.308;2022-11-04T07:50:32;99354.41;;;10.11;100.00
15634;BME280;14654;48.898;8.308;2022-11-04T07:52:58;99349.22;;;10.12;100.00
15634;BME280;14654;48.898;8.308;2022-11-04T07:55:24;99351.66;;;10.18;100.00
15634;BME280;14654;48.898;8.308;2022-11-04T07:57:49;99345.56;;;10.21;100.00
15634;BME280;14654;48.898;8.308;2022-11-04T08:00:15;99340.25;;;10.27;100.00
15634;BME280;14654;48.898;8.308;2022-11-04T08:02:44;99330.63;;;10.34;100.00
15634;BME280;14654;48.898;8.308;2022-11-04T08:05:13;99327.88;;;10.42;100.00
15634;BME280;14654;48.898;8.308;2022-11-04T08:07:39;99331.94;;;10.52;100.00
15634;BME280;14654;48.898;8.308;2022-11-04T08:10:06;99332.56;;;10.63;100.00
15634;BME280;14654;48.898;8.308;2022-11-04T08:12:32;99328.84;;;10.74;100.00
15634;BME280;14654;48.898;8.308;2022-11-04T08:14:58;99321.66;;;10.85;100.00
15634;BME280;14654;48.898;8.308;2022-11-04T08:17:23;99323.13;;;10.95;100.00
15634;BME280;14654;48.898;8.308;2022-11-04T08:19:49;99328.94;;;11.04;100.00
15634;BME280;14654;48.898;8.308;2022-11-04T08:22:14;99319.19;;;11.13;100.00
15634;BME280;14654;48.898;8.308;2022-11-04T08:24:40;99318.09;;;11.22;100.00
15634;BME280;14654;48.898;8.308;2022-11-04T08:27:05;99327.38;;;11.29;100.00
15634;BME280;14654;48.898;8.308;2022-11-04T08:29:34;99322.00;;;11.37;100.00
15634;BME280;14654;48.898;8.308;2022-11-04T08:32:01;99314.91;;;11.44;100.00
15634;BME280;14654;48.898;8.308;2022-11-04T08:34:26;99312.91;;;11.54;100.00
15634;BME280;14654;48.898;8.308;2022-11-04T08:36:51;99311.75;;;11.64;100.00
15634;BME280;14654;48.898;8.308;2022-11-04T08:39:17;99305.19;;;11.81;100.00
15634;BME280;14654;48.898;8.308;2022-11-04T08:41:43;99309.91;;;11.98;100.00
15634;BME280;14654;48.898;8.308;2022-11-04T08:44:12;99310.25;;;12.15;100.00
15634;BME280;14654;48.898;8.308;2022-11-04T08:46:40;99309.81;;;12.29;100.00
15634;BME280;14654;48.898;8.308;2022-11-04T08:49:06;99306.88;;;12.40;100.00
15634;BME280;14654;48.898;8.308;2022-11-04T08:51:33;99308.25;;;12.52;100.00
15634;BME280;14654;48.898;8.308;2022-11-04T08:53:59;99309.47;;;12.67;100.00
15634;BME280;14654;48.898;8.308;2022-11-04T08:56:27;99303.97;;;12.76;100.00
15634;BME280;14654;48.898;8.308;2022-11-04T08:58:53;99298.56;;;12.83;100.00
15634;BME280;14654;48.898;8.308;2022-11-04T09:01:20;99295.16;;;12.80;100.00
15634;BME280;14654;48.898;8.308;2022-11-04T09:03:46;99303.97;;;12.76;100.00
15634;BME280;14654;48.898;8.308;2022-11-04T09:06:15;99310.16;;;12.72;100.00
15634;BME280;14654;48.898;8.308;2022-11-04T09:08:41;99311.06;;;12.71;100.00
15634;BME280;14654;48.898;8.308;2022-11-04T09:11:10;99327.53;;;12.70;100.00
15634;BME280;14654;48.898;8.308;2022-11-04T09:13:37;99326.63;;;12.71;100.00
15634;BME280;14654;48.898;8.308;2022-11-04T09:16:03;99328.91;;;12.80;100.00
15634;BME280;14654;48.898;8.308;2022-11-04T09:18:29;99328.56;;;12.91;100.00
15634;BME280;14654;48.898;8.308;2022-11-04T09:20:54;99320.50;;;12.99;100.00
15634;BME280;14654;48.898;8.308;2022-11-04T09:23:20;99316.56;;;13.13;100.00
15634;BME280;14654;48.898;8.308;2022-11-04T09:25:45;99324.63;;;13.30;100.00
15634;BME280;14654;48.898;8.308;2022-11-04T09:28:10;99323.09;;;13.50;100.00
15634;BME280;14654;48.898;8.308;2022-11-04T09:30:36;99332.81;;;13.68;100.00
15634;BME280;14654;48.898;8.308;2022-11-04T09:33:02;99335.69;;;13.84;100.00
15634;BME280;14654;48.898;8.308;2022-11-04T09:35:28;99335.09;;;14.00;100.00
15634;BME280;14654;48.898;8.308;2022-11-04T09:37:53;99335.41;;;14.14;99.80
15634;BME280;14654;48.898;8.308;2022-11-04T09:40:22;99341.84;;;14.28;98.92
15634;BME280;14654;48.898;8.308;2022-11-04T09:45:33;99344.19;;;14.56;98.21
15634;BME280;14654;48.898;8.308;2022-11-04T09:48:02;99351.94;;;14.58;97.38
15634;BME280;14654;48.898;8.308;2022-11-04T09:50:44;99346.78;;;14.56;97.18
15634;BME280;14654;48.898;8.308;2022-11-04T09:53:17;99341.69;;;14.53;97.20
15634;BME280;14654;48.898;8.308;2022-11-04T09:55:57;99337.31;;;14.54;96.66
15634;BME280;14654;48.898;8.308;2022-11-04T09:58:24;99350.53;;;14.49;97.03
15634;BME280;14654;48.898;8.308;2022-11-04T10:09:07;99367.13;;;14.02;98.15
15634;BME280;14654;48.898;8.308;2022-11-04T10:19:37;99358.94;;;13.65;98.73
15634;BME280;14654;48.898;8.308;2022-11-04T10:22:18;99349.38;;;13.66;99.19
15634;BME280;14654;48.898;8.308;2022-11-04T10:25:31;99351.75;;;13.72;99.05
15634;BME280;14654;48.898;8.308;2022-11-04T10:27:53;99341.19;;;13.77;99.30
15634;BME280;14654;48.898;8.308;2022-11-04T10:30:23;99346.16;;;13.83;98.83
15634;BME280;14654;48.898;8.308;2022-11-04T10:35:37;99345.25;;;13.84;98.24
15634;BME280;14654;48.898;8.308;2022-11-04T10:38:44;99341.69;;;13.86;98.44
15634;BME280;14654;48.898;8.308;2022-11-04T10:43:55;99334.50;;;13.93;98.54
15634;BME280;14654;48.898;8.308;2022-11-04T10:49:31;99337.72;;;14.00;97.43
15634;BME280;14654;48.898;8.308;2022-11-04T10:52:01;99339.34;;;14.02;97.50
15634;BME280;14654;48.898;8.308;2022-11-04T10:54:26;99341.00;;;14.05;97.02
15634;BME280;14654;48.898;8.308;2022-11-04T10:56:54;99342.63;;;14.08;97.49
15634;BME280;14654;48.898;8.308;2022-11-04T10:59:47;99340.81;;;14.10;97.05
15634;BME280;14654;48.898;8.308;2022-11-04T11:02:14;99333.94;;;14.07;96.86
15634;BME280;14654;48.898;8.308;2022-11-04T11:04:40;99337.41;;;14.08;97.05
15634;BME280;14654;48.898;8.308;2022-11-04T11:07:10;99344.25;;;14.10;97.18
15634;BME280;14654;48.898;8.308;2022-11-04T11:14:39;99333.47;;;14.42;96.97
15634;BME280;14654;48.898;8.308;2022-11-04T11:22:40;99329.88;;;14.67;95.89
15634;BME280;14654;48.898;8.308;2022-11-04T11:28:01;99327.69;;;14.78;94.95
15634;BME280;14654;48.898;8.308;2022-11-04T11:30:30;99323.84;;;14.87;94.84
15634;BME280;14654;48.898;8.308;2022-11-04T11:33:04;99325.19;;;14.97;94.16
15634;BME280;14654;48.898;8.308;2022-11-04T11:35:38;99318.97;;;15.00;92.95
15634;BME280;14654;48.898;8.308;2022-11-04T11:38:24;99321.63;;;14.98;93.60
15634;BME280;14654;48.898;8.308;2022-11-04T11:40:53;99314.81;;;14.96;93.69
15634;BME280;14654;48.898;8.308;2022-11-04T11:43:29;99308.88;;;14.92;94.00
15634;BME280;14654;48.898;8.308;2022-11-04T11:45:56;99313.13;;;14.94;94.00
15634;BME280;14654;48.898;8.308;2022-11-04T11:48:39;99304.25;;;14.99;93.53
15634;BME280;14654;48.898;8.308;2022-11-04T11:51:10;99315.34;;;15.04;93.54
15634;BME280;14654;48.898;8.308;2022-11-04T11:53:36;99306.31;;;15.11;93.74
15634;BME280;14654;48.898;8.308;2022-11-04T11:56:20;99300.69;;;15.20;93.31
15634;BME280;14654;48.898;8.308;2022-11-04T11:59:07;99298.53;;;15.30;92.88
15634;BME280;14654;48.898;8.308;2022-11-04T12:01:43;99299.84;;;15.41;92.59
15634;BME280;14654;48.898;8.308;2022-11-04T12:04:11;99293.72;;;15.42;92.29
15634;BME280;14654;48.898;8.308;2022-11-04T12:12:55;99289.41;;;15.41;91.87
15634;BME280;14654;48.898;8.308;2022-11-04T12:23:49;99302.84;;;14.71;92.27
15634;BME280;14654;48.898;8.308;2022-11-04T12:26:38;99303.38;;;14.57;92.65
15634;BME280;14654;48.898;8.308;2022-11-04T12:32:14;99297.41;;;14.32;93.22
15634;BME280;14654;48.898;8.308;2022-11-04T12:35:07;99296.91;;;14.23;93.47
15634;BME280;14654;48.898;8.308;2022-11-04T12:37:50;99290.28;;;14.15;94.11
15634;BME280;14654;48.898;8.308;2022-11-04T12:40:20;99296.50;;;14.11;94.36
15634;BME280;14654;48.898;8.308;2022-11-04T12:49:02;99297.81;;;13.99;94.79
15634;BME280;14654;48.898;8.308;2022-11-04T12:56:14;99293.28;;;13.82;95.44
15634;BME280;14654;48.898;8.308;2022-11-04T12:59:12;99305.38;;;13.83;95.64
15634;BME280;14654;48.898;8.308;2022-11-04T13:01:45;99299.06;;;13.91;95.24
15634;BME280;14654;48.898;8.308;2022-11-04T13:04:16;99304.72;;;14.00;95.02
15634;BME280;14654;48.898;8.308;2022-11-04T13:06:48;99299.97;;;14.12;94.34
15634;BME280;14654;48.898;8.308;2022-11-04T13:09:25;99302.19;;;14.21;93.65
15634;BME280;14654;48.898;8.308;2022-11-04T13:11:55;99304.41;;;14.30;93.48
15634;BME280;14654;48.898;8.308;2022-11-04T13:14:26;99313.63;;;14.39;92.39
15634;BME280;14654;48.898;8.308;2022-11-04T13:16:55;99317.72;;;14.45;91.08
15634;BME280;14654;48.898;8.308;2022-11-04T13:22:02;99327.06;;;14.51;91.20
15634;BME280;14654;48.898;8.308;2022-11-04T13:24:32;99334.00;;;14.50;91.32
15634;BME280;14654;48.898;8.308;2022-11-04T13:27:03;99324.69;;;14.44;91.97
15634;BME280;14654;48.898;8.308;2022-11-04T13:29:31;99327.72;;;14.33;92.64
15634;BME280;14654;48.898;8.308;2022-11-04T13:34:36;99341.53;;;14.13;93.36
15634;BME280;14654;48.898;8.308;2022-11-04T13:37:27;99343.34;;;14.11;93.46
15634;BME280;14654;48.898;8.308;2022-11-04T13:39:57;99350.25;;;14.12;93.72
15634;BME280;14654;48.898;8.308;2022-11-04T13:45:51;99360.75;;;14.09;94.29
15634;BME280;14654;48.898;8.308;2022-11-04T13:48:20;99358.22;;;14.08;94.56
15634;BME280;14654;48.898;8.308;2022-11-04T13:51:06;99365.06;;;14.10;94.77
15634;BME280;14654;48.898;8.308;2022-11-04T13:56:05;99367.06;;;14.26;95.01
15634;BME280;14654;48.898;8.308;2022-11-04T13:58:31;99361.44;;;14.37;94.82
15634;BME280;14654;48.898;8.308;2022-11-04T14:04:02;99372.34;;;14.46;93.84
15634;BME280;14654;48.898;8.308;2022-11-04T14:07:07;99375.78;;;14.47;93.89
15634;BME280;14654;48.898;8.308;2022-11-04T14:14:34;99379.44;;;14.65;93.32
15634;BME280;14654;48.898;8.308;2022-11-04T14:17:01;99380.06;;;14.72;93.04
15634;BME280;14654;48.898;8.308;2022-11-04T14:23:04;99384.16;;;14.77;92.96
15634;BME280;14654;48.898;8.308;2022-11-04T14:25:37;99378.22;;;14.74;93.06
15634;BME280;14654;48.898;8.308;2022-11-04T14:28:25;99384.50;;;14.68;92.79
15634;BME280;14654;48.898;8.308;2022-11-04T14:30:56;99393.41;;;14.62;93.20
15634;BME280;14654;48.898;8.308;2022-11-04T14:38:42;99388.25;;;14.39;92.89
15634;BME280;14654;48.898;8.308;2022-11-04T14:44:01;99394.97;;;14.22;93.16
15634;BME280;14654;48.898;8.308;2022-11-04T14:46:34;99397.06;;;14.12;93.39
15634;BME280;14654;48.898;8.308;2022-11-04T14:49:05;99403.53;;;14.02;93.79
15634;BME280;14654;48.898;8.308;2022-11-04T14:51:32;99400.53;;;13.89;94.18
15634;BME280;14654;48.898;8.308;2022-11-04T14:54:05;99412.22;;;13.77;94.46
15634;BME280;14654;48.898;8.308;2022-11-04T14:56:32;99408.44;;;13.62;94.80
15634;BME280;14654;48.898;8.308;2022-11-04T14:59:05;99407.84;;;13.54;95.34
15634;BME280;14654;48.898;8.308;2022-11-04T15:01:37;99410.78;;;13.45;95.83
15634;BME280;14654;48.898;8.308;2022-11-04T15:06:42;99420.88;;;13.27;96.33
15634;BME280;14654;48.898;8.308;2022-11-04T15:09:20;99423.78;;;13.18;96.36
15634;BME280;14654;48.898;8.308;2022-11-04T15:11:46;99422.34;;;13.09;96.82
15634;BME280;14654;48.898;8.308;2022-11-04T15:14:30;99426.25;;;12.95;97.73
15634;BME280;14654;48.898;8.308;2022-11-04T15:16:56;99431.78;;;12.85;98.01
15634;BME280;14654;48.898;8.308;2022-11-04T15:19:34;99433.06;;;12.71;98.80
15634;BME280;14654;48.898;8.308;2022-11-04T15:22:02;99428.22;;;12.60;99.23
15634;BME280;14654;48.898;8.308;2022-11-04T15:24:29;99437.19;;;12.50;100.00
15634;BME280;14654;48.898;8.308;2022-11-04T15:27:00;99438.31;;;12.41;100.00
15634;BME280;14654;48.898;8.308;2022-11-04T15:29:26;99442.88;;;12.33;100.00
15634;BME280;14654;48.898;8.308;2022-11-04T15:34:20;99447.72;;;12.15;100.00
15634;BME280;14654;48.898;8.308;2022-11-04T15:36:47;99447.97;;;12.06;100.00
15634;BME280;14654;48.898;8.308;2022-11-04T15:41:41;99459.75;;;11.86;100.00
15634;BME280;14654;48.898;8.308;2022-11-04T15:44:26;99462.63;;;11.76;100.00
15634;BME280;14654;48.898;8.308;2022-11-04T15:46:57;99468.09;;;11.65;100.00
15634;BME280;14654;48.898;8.308;2022-11-04T15:49:25;99470.06;;;11.55;100.00
15634;BME280;14654;48.898;8.308;2022-11-04T15:51:53;99479.81;;;11.45;100.00